createdAt,value
2022-08-24T00:02:26.152Z,19.15
2022-08-24T00:04:55.794Z,12.70
2022-08-24T00:07:28.209Z,15.88
2022-08-24T00:09:57.159Z,12.03
2022-08-24T00:12:27.524Z,24.25
2022-08-24T00:14:57.472Z,25.90
2022-08-24T00:17:26.749Z,21.23
2022-08-24T00:19:56.310Z,13.20
2022-08-24T00:22:29.548Z,20.20
2022-08-24T00:25:00.343Z,18.60
2022-08-24T00:27:31.225Z,18.73
2022-08-24T00:30:01.794Z,12.65
2022-08-24T00:32:30.088Z,15.32
2022-08-24T00:34:59.528Z,18.38
2022-08-24T00:37:29.995Z,21.60
2022-08-24T00:39:59.436Z,20.65
2022-08-24T00:42:27.852Z,25.67
2022-08-24T00:44:56.037Z,20.98
2022-08-24T00:47:34.229Z,17.77
2022-08-24T00:50:11.290Z,15.63
2022-08-24T00:52:47.824Z,21.75
2022-08-24T00:55:24.109Z,22.38
2022-08-24T00:58:02.688Z,22.50
2022-08-24T01:00:48.879Z,22.10
2022-08-24T01:03:20.978Z,23.95
2022-08-24T01:05:52.654Z,27.70
2022-08-24T01:08:27.666Z,20.27
2022-08-24T01:11:02.055Z,15.98
2022-08-24T01:13:36.014Z,17.45
2022-08-24T01:16:10.073Z,15.73
2022-08-24T01:18:53.040Z,21.63
2022-08-24T01:24:00.764Z,21.98
2022-08-24T01:26:36.475Z,14.20
2022-08-24T01:29:11.831Z,14.43
2022-08-24T01:31:43.845Z,18.98
2022-08-24T01:34:15.171Z,22.25
2022-08-24T01:36:48.647Z,13.93
2022-08-24T01:39:24.614Z,15.15
2022-08-24T01:41:55.419Z,12.77
2022-08-24T01:44:27.930Z,20.63
2022-08-24T01:46:58.828Z,11.35
2022-08-24T01:49:32.744Z,14.07
2022-08-24T01:52:07.264Z,12.40
2022-08-24T01:54:40.234Z,20.00
2022-08-24T01:57:16.984Z,9.70
2022-08-24T01:59:48.853Z,10.73
2022-08-24T02:02:23.465Z,11.43
2022-08-24T02:04:53.377Z,17.50
2022-08-24T02:07:25.699Z,9.80
2022-08-24T02:10:00.185Z,9.68
2022-08-24T02:12:31.732Z,11.15
2022-08-24T02:15:03.497Z,15.95
2022-08-24T02:17:33.984Z,17.42
2022-08-24T02:20:05.511Z,10.98
2022-08-24T02:22:35.690Z,17.33
2022-08-24T02:25:07.735Z,10.02
2022-08-24T02:27:41.504Z,12.07
2022-08-24T02:30:13.218Z,12.38
2022-08-24T02:32:43.853Z,15.27
2022-08-24T02:35:13.303Z,18.70
2022-08-24T02:37:44.332Z,15.43
2022-08-24T02:40:20.222Z,14.77
2022-08-24T02:42:53.744Z,11.50
2022-08-24T02:45:24.292Z,9.65
2022-08-24T02:47:56.288Z,15.75
2022-08-24T02:50:29.220Z,15.48
2022-08-24T02:53:00.074Z,13.57
2022-08-24T02:55:33.128Z,10.82
2022-08-24T02:58:01.888Z,10.30
2022-08-24T03:00:31.530Z,15.80
2022-08-24T03:03:00.747Z,10.55
2022-08-24T03:05:30.667Z,9.68
2022-08-24T03:08:01.117Z,9.38
2022-08-24T03:10:35.323Z,14.98
2022-08-24T03:13:08.211Z,10.30
2022-08-24T03:15:39.204Z,14.20
2022-08-24T03:18:11.778Z,9.57
2022-08-24T03:20:47.428Z,8.35
2022-08-24T03:23:17.532Z,9.00
2022-08-24T03:25:48.603Z,7.97
2022-08-24T03:28:17.146Z,12.30
2022-08-24T03:30:48.352Z,13.68
2022-08-24T03:33:19.265Z,11.80
2022-08-24T03:35:47.389Z,12.57
2022-08-24T03:38:18.472Z,10.90
2022-08-24T03:40:48.805Z,10.07
2022-08-24T03:43:32.690Z,9.18
2022-08-24T03:46:05.006Z,9.93
2022-08-24T03:48:35.079Z,10.10
2022-08-24T03:51:03.753Z,11.73
2022-08-24T03:53:36.801Z,9.52
2022-08-24T03:56:14.899Z,9.05
2022-08-24T03:58:47.225Z,7.95
2022-08-24T04:01:19.631Z,7.80
2022-08-24T04:03:52.426Z,8.40
2022-08-24T04:06:27.034Z,14.55
2022-08-24T04:08:58.549Z,9.30
2022-08-24T04:11:32.570Z,11.55
2022-08-24T04:14:02.744Z,12.52
2022-08-24T04:16:36.346Z,14.60
2022-08-24T04:19:17.410Z,13.45
2022-08-24T04:21:46.703Z,12.25
2022-08-24T04:24:17.278Z,9.68
2022-08-24T04:26:50.794Z,12.77
2022-08-24T04:29:25.084Z,10.27
2022-08-24T04:31:55.180Z,8.68
2022-08-24T04:34:26.204Z,14.88
2022-08-24T04:36:58.416Z,12.82
2022-08-24T04:39:34.184Z,11.07
2022-08-24T04:42:26.626Z,15.55
2022-08-24T04:44:59.454Z,11.43
2022-08-24T04:47:32.661Z,11.23
2022-08-24T04:50:04.307Z,10.25
2022-08-24T04:52:34.324Z,9.38
2022-08-24T04:55:04.730Z,9.38
2022-08-24T04:57:40.462Z,8.48
2022-08-24T05:00:12.774Z,8.55
2022-08-24T05:02:46.774Z,8.70
2022-08-24T05:05:18.395Z,8.55
2022-08-24T05:07:48.617Z,9.88
2022-08-24T05:10:16.863Z,9.48
2022-08-24T05:12:49.775Z,9.30
2022-08-24T05:15:21.032Z,11.13
2022-08-24T05:17:51.584Z,14.35
2022-08-24T05:20:22.526Z,13.98
2022-08-24T05:22:55.797Z,12.32
2022-08-24T05:25:24.418Z,10.05
2022-08-24T05:27:56.237Z,11.35
2022-08-24T05:30:24.360Z,17.35
2022-08-24T05:32:54.725Z,13.82
2022-08-24T05:35:26.095Z,11.82
2022-08-24T05:37:57.344Z,13.10
2022-08-24T05:40:34.020Z,14.13
2022-08-24T05:43:06.050Z,18.17
2022-08-24T05:45:34.497Z,14.80
2022-08-24T05:48:04.797Z,20.77
2022-08-24T05:51:01.934Z,19.38
2022-08-24T05:53:36.336Z,18.23
2022-08-24T05:56:06.816Z,21.10
2022-08-24T05:58:40.132Z,21.75
2022-08-24T06:01:10.370Z,19.38
2022-08-24T06:03:40.062Z,16.63
2022-08-24T06:06:14.002Z,15.60
2022-08-24T06:08:47.017Z,16.75
2022-08-24T06:14:07.201Z,12.35
2022-08-24T06:16:44.391Z,13.40
2022-08-24T06:19:16.941Z,18.60
2022-08-24T06:21:48.267Z,17.85
2022-08-24T06:24:19.747Z,18.92
2022-08-24T06:27:09.463Z,15.57
2022-08-24T06:29:40.054Z,14.10
2022-08-24T06:32:28.606Z,12.18
2022-08-24T06:34:58.399Z,14.45
2022-08-24T06:37:29.380Z,15.07
2022-08-24T06:39:59.067Z,17.65
2022-08-24T06:42:29.351Z,16.88
2022-08-24T06:47:30.290Z,15.10
2022-08-24T06:50:06.513Z,15.17
2022-08-24T06:52:39.759Z,15.73
2022-08-24T06:55:11.007Z,15.25
2022-08-24T06:57:39.375Z,13.30
2022-08-24T07:00:11.288Z,10.75
2022-08-24T07:02:42.589Z,10.15
2022-08-24T07:05:12.034Z,8.35
2022-08-24T07:08:01.339Z,8.05
2022-08-24T07:10:31.559Z,7.88
2022-08-24T07:13:02.272Z,8.93
2022-08-24T07:15:33.571Z,8.10
2022-08-24T07:18:15.964Z,7.30
2022-08-24T07:20:51.340Z,7.93
2022-08-24T07:23:42.107Z,8.32
2022-08-24T07:26:21.225Z,8.48
2022-08-24T07:29:00.251Z,8.45
2022-08-24T07:31:35.628Z,6.88
2022-08-24T07:34:14.362Z,8.18
2022-08-24T07:36:45.032Z,7.40
2022-08-24T07:39:14.780Z,7.47
2022-08-24T07:42:10.886Z,7.43
2022-08-24T07:44:38.058Z,6.90
2022-08-24T07:47:34.320Z,7.30
2022-08-24T07:50:01.135Z,6.30
2022-08-24T07:52:33.113Z,6.38
2022-08-24T07:55:06.682Z,12.85
2022-08-24T07:57:47.651Z,19.77
2022-08-24T08:00:21.516Z,20.00
2022-08-24T08:02:59.420Z,22.33
2022-08-24T08:05:29.363Z,31.52
2022-08-24T08:08:00.867Z,23.20
2022-08-24T08:10:31.921Z,13.45
2022-08-24T08:13:01.052Z,8.43
2022-08-24T08:15:30.891Z,18.00
2022-08-24T08:18:09.807Z,17.80
2022-08-24T08:20:43.861Z,9.90
2022-08-24T08:23:34.497Z,5.00
2022-08-24T08:26:15.678Z,9.13
2022-08-24T08:29:01.098Z,6.43
2022-08-24T08:31:34.621Z,7.32
2022-08-24T08:34:07.490Z,5.40
2022-08-24T08:36:40.570Z,4.53
2022-08-24T08:39:13.465Z,10.68
2022-08-24T08:42:14.477Z,19.20
2022-08-24T08:44:54.263Z,19.60
2022-08-24T08:47:53.263Z,7.88
2022-08-24T08:50:35.812Z,4.70
2022-08-24T08:53:42.544Z,4.85
2022-08-24T08:56:23.779Z,3.97
2022-08-24T08:59:04.193Z,5.93
2022-08-24T09:02:10.717Z,11.43
2022-08-24T09:05:16.153Z,12.55
2022-08-24T09:08:00.409Z,18.42
2022-08-24T09:10:46.621Z,13.57
2022-08-24T09:13:39.319Z,11.88
2022-08-24T09:16:33.624Z,12.02
2022-08-24T09:19:25.954Z,13.95
2022-08-24T09:22:15.292Z,10.02
2022-08-24T09:25:24.795Z,9.88
2022-08-24T09:28:43.774Z,11.40
2022-08-24T09:31:37.922Z,9.55
2022-08-24T09:34:20.493Z,7.43
2022-08-24T09:37:17.555Z,10.60
2022-08-24T09:40:03.562Z,8.15
2022-08-24T09:43:13.428Z,5.78
2022-08-24T09:46:13.898Z,4.20
2022-08-24T09:49:15.347Z,4.10
2022-08-24T09:52:11.266Z,4.57
2022-08-24T09:55:14.163Z,3.80
2022-08-24T09:58:03.803Z,3.42
2022-08-24T10:00:41.967Z,4.10
2022-08-24T10:03:40.288Z,4.40
2022-08-24T10:06:29.988Z,3.90
2022-08-24T10:09:25.197Z,3.13
2022-08-24T10:12:06.424Z,3.67
2022-08-24T10:14:52.941Z,3.22
2022-08-24T10:17:35.842Z,3.85
2022-08-24T10:20:24.081Z,3.72
2022-08-24T10:23:22.119Z,3.88
2022-08-24T10:25:58.198Z,5.00
2022-08-24T10:29:00.922Z,3.45
2022-08-24T10:31:43.834Z,2.85
2022-08-24T10:34:32.532Z,3.00
2022-08-24T10:37:42.319Z,2.78
2022-08-24T10:40:35.113Z,3.10
2022-08-24T10:43:35.938Z,2.97
2022-08-24T10:46:39.799Z,2.55
2022-08-24T10:49:52.182Z,2.83
2022-08-24T10:52:48.897Z,3.58
2022-08-24T10:55:22.455Z,2.67
2022-08-24T10:58:08.314Z,2.83
2022-08-24T11:00:37.917Z,2.83
2022-08-24T11:03:11.145Z,3.78
2022-08-24T11:05:43.701Z,2.58
2022-08-24T11:08:21.579Z,2.60
2022-08-24T11:11:09.253Z,2.42
2022-08-24T11:13:38.999Z,2.28
2022-08-24T11:16:07.767Z,2.80
2022-08-24T11:18:49.653Z,2.30
2022-08-24T11:21:34.909Z,2.55
2022-08-24T11:24:07.161Z,2.20
2022-08-24T11:26:53.603Z,2.72
2022-08-24T11:29:23.230Z,2.85
2022-08-24T11:31:52.781Z,2.75
2022-08-24T11:34:33.269Z,2.50
2022-08-24T11:37:01.522Z,2.20
2022-08-24T11:39:36.190Z,2.40
2022-08-24T11:42:29.224Z,2.15
2022-08-24T11:45:08.840Z,2.40
2022-08-24T11:47:49.668Z,2.38
2022-08-24T11:50:30.606Z,2.22
2022-08-24T11:53:12.070Z,2.45
2022-08-24T11:55:57.178Z,2.00
2022-08-24T11:58:39.732Z,2.47
2022-08-24T12:01:18.805Z,2.50
2022-08-24T12:04:02.455Z,2.17
2022-08-24T12:06:44.250Z,2.03
2022-08-24T12:09:25.839Z,1.80
2022-08-24T12:12:03.734Z,2.20
2022-08-24T12:14:38.375Z,1.90
2022-08-24T12:17:16.336Z,1.70
2022-08-24T12:19:50.361Z,1.70
2022-08-24T12:22:21.105Z,1.88
2022-08-24T12:24:54.647Z,1.85
2022-08-24T12:27:26.686Z,1.63
2022-08-24T12:30:00.430Z,1.90
2022-08-24T12:32:37.640Z,2.15
2022-08-24T12:35:10.216Z,1.50
2022-08-24T12:37:44.495Z,1.90
2022-08-24T12:40:22.961Z,2.97
2022-08-24T12:42:56.241Z,2.92
2022-08-24T12:45:26.025Z,2.90
2022-08-24T12:47:59.942Z,3.00
2022-08-24T12:50:33.344Z,1.60
2022-08-24T12:53:32.190Z,1.85
2022-08-24T12:56:24.080Z,1.83
2022-08-24T12:59:00.310Z,2.03
2022-08-24T13:01:35.761Z,1.45
2022-08-24T13:04:09.257Z,1.88
2022-08-24T13:06:42.394Z,2.15
2022-08-24T13:11:43.647Z,2.13
2022-08-24T13:14:22.209Z,1.70
2022-08-24T13:17:12.622Z,1.73
2022-08-24T13:19:45.728Z,2.00
2022-08-24T13:25:02.932Z,1.92
2022-08-24T13:28:04.201Z,3.33
2022-08-24T13:31:05.914Z,4.30
2022-08-24T13:33:46.460Z,6.10
2022-08-24T13:36:51.684Z,5.40
2022-08-24T13:39:56.659Z,2.58
2022-08-24T13:42:55.562Z,3.47
2022-08-24T13:45:34.224Z,3.25
2022-08-24T13:48:30.064Z,2.22
2022-08-24T13:51:37.961Z,2.40
2022-08-24T13:54:29.748Z,2.40
2022-08-24T13:57:11.810Z,2.90
2022-08-24T14:00:01.281Z,2.60
2022-08-24T14:02:46.947Z,2.47
2022-08-24T14:05:31.785Z,2.10
2022-08-24T14:08:15.253Z,2.40
2022-08-24T14:10:57.446Z,3.95
2022-08-24T14:13:41.185Z,4.50
2022-08-24T14:16:49.543Z,4.35
2022-08-24T14:19:25.276Z,3.70
2022-08-24T14:22:10.384Z,2.80
2022-08-24T14:24:49.320Z,2.92
2022-08-24T14:27:38.633Z,3.17
2022-08-24T14:30:45.536Z,2.92
2022-08-24T14:33:22.910Z,2.80
2022-08-24T14:36:19.398Z,3.10
2022-08-24T14:38:59.707Z,5.38
2022-08-24T14:41:49.384Z,11.40
2022-08-24T14:44:43.129Z,26.67
2022-08-24T14:47:26.851Z,28.35
2022-08-24T14:50:14.985Z,45.10
2022-08-24T14:53:19.965Z,33.03
2022-08-24T14:56:01.191Z,36.95
2022-08-24T14:58:42.083Z,36.80
2022-08-24T15:01:40.745Z,53.38
2022-08-24T15:04:30.703Z,36.92
2022-08-24T15:07:28.592Z,28.10
2022-08-24T15:10:01.899Z,18.67
2022-08-24T15:12:44.484Z,15.13
2022-08-24T15:15:24.127Z,10.05
2022-08-24T15:18:09.671Z,7.10
2022-08-24T15:20:57.311Z,5.70
2022-08-24T15:23:37.474Z,4.82
2022-08-24T15:26:13.631Z,4.35
2022-08-24T15:28:55.202Z,3.40
2022-08-24T15:34:00.775Z,4.00
2022-08-24T15:39:05.255Z,2.95
2022-08-24T15:41:37.987Z,3.17
2022-08-24T15:44:20.416Z,4.17
2022-08-24T15:46:56.479Z,4.18
2022-08-24T15:49:29.460Z,4.32
2022-08-24T15:52:02.876Z,4.38
2022-08-24T15:54:40.925Z,4.57
2022-08-24T15:57:27.693Z,3.75
2022-08-24T16:00:09.527Z,4.18
2022-08-24T16:02:39.479Z,4.88
2022-08-24T16:05:22.156Z,4.80
2022-08-24T16:08:14.339Z,5.10
2022-08-24T16:10:44.905Z,5.65
2022-08-24T16:13:26.903Z,5.57
2022-08-24T16:16:06.179Z,6.05
2022-08-24T16:19:08.544Z,4.80
2022-08-24T16:21:58.550Z,4.25
2022-08-24T16:24:38.456Z,4.80
2022-08-24T16:27:11.701Z,4.35
2022-08-24T16:29:56.285Z,4.10
2022-08-24T16:32:53.748Z,4.30
2022-08-24T16:35:26.954Z,4.28
2022-08-24T16:40:31.917Z,4.18
2022-08-24T16:43:05.179Z,4.05
2022-08-24T16:45:36.178Z,3.05
2022-08-24T16:48:07.399Z,3.22
2022-08-24T16:50:38.400Z,3.28
2022-08-24T16:53:07.330Z,3.60
2022-08-24T16:55:39.884Z,3.20
2022-08-24T17:00:39.984Z,3.63
2022-08-24T17:03:15.059Z,3.42
2022-08-24T17:05:51.092Z,3.50
2022-08-24T17:08:24.707Z,3.13
2022-08-24T17:10:56.152Z,3.03
2022-08-24T17:16:18.652Z,2.60
2022-08-24T17:18:49.373Z,2.72
2022-08-24T17:21:18.281Z,2.80
2022-08-24T17:23:49.448Z,2.45
2022-08-24T17:26:21.460Z,2.20
2022-08-24T17:28:54.688Z,2.65
2022-08-24T17:31:24.886Z,2.60
2022-08-24T17:33:54.614Z,2.90
2022-08-24T17:36:25.035Z,3.00
2022-08-24T17:38:56.351Z,3.13
2022-08-24T17:41:26.648Z,2.28
2022-08-24T17:44:02.216Z,2.90
2022-08-24T17:46:31.815Z,2.80
2022-08-24T17:49:06.302Z,2.97
2022-08-24T17:51:41.523Z,3.35
2022-08-24T17:54:10.377Z,3.08
2022-08-24T17:56:42.694Z,2.70
2022-08-24T17:59:26.410Z,2.97
2022-08-24T18:02:02.563Z,3.03
2022-08-24T18:04:43.991Z,3.20
2022-08-24T18:07:22.179Z,2.90
2022-08-24T18:10:15.540Z,3.88
2022-08-24T18:12:44.360Z,3.25
2022-08-24T18:15:35.448Z,5.13
2022-08-24T18:18:09.944Z,3.53
2022-08-24T18:20:43.607Z,6.50
2022-08-24T18:23:15.051Z,21.35
2022-08-24T18:25:53.829Z,6.00
2022-08-24T18:28:24.300Z,7.45
2022-08-24T18:30:55.674Z,4.95
2022-08-24T18:33:27.760Z,5.93
2022-08-24T18:36:04.157Z,7.40
2022-08-24T18:38:35.408Z,6.03
2022-08-24T18:41:04.753Z,7.13
2022-08-24T18:43:35.777Z,6.60
2022-08-24T18:46:07.103Z,5.22
2022-08-24T18:48:38.991Z,6.00
2022-08-24T18:51:10.385Z,5.57
2022-08-24T18:53:40.386Z,5.20
2022-08-24T18:56:12.657Z,4.93
2022-08-24T19:01:18.950Z,6.07
2022-08-24T19:03:47.324Z,5.10
2022-08-24T19:06:23.208Z,5.05
2022-08-24T19:08:53.332Z,5.00
2022-08-24T19:11:26.000Z,5.40
2022-08-24T19:13:54.789Z,4.33
2022-08-24T19:16:31.167Z,6.00
2022-08-24T19:19:01.536Z,6.05
2022-08-24T19:21:41.829Z,6.20
2022-08-24T19:24:13.376Z,5.40
2022-08-24T19:26:43.667Z,6.88
2022-08-24T19:29:12.809Z,4.80
2022-08-24T19:31:43.783Z,7.43
2022-08-24T19:34:14.349Z,7.40
2022-08-24T19:36:47.638Z,7.28
2022-08-24T19:39:18.577Z,7.40
2022-08-24T19:42:06.355Z,6.43
2022-08-24T19:44:57.715Z,6.03
2022-08-24T19:47:28.492Z,4.90
2022-08-24T19:49:58.811Z,7.03
2022-08-24T19:52:34.753Z,6.88
2022-08-24T19:55:06.535Z,5.70
2022-08-24T19:57:44.904Z,7.45
2022-08-24T20:00:31.783Z,9.48
2022-08-24T20:03:08.703Z,7.25
2022-08-24T20:05:37.942Z,8.20
2022-08-24T20:08:11.442Z,5.75
2022-08-24T20:10:42.375Z,6.57
2022-08-24T20:13:13.381Z,5.97
2022-08-24T20:15:44.704Z,8.30
2022-08-24T20:18:17.835Z,7.97
2022-08-24T20:20:58.076Z,8.23
2022-08-24T20:23:31.282Z,7.97
2022-08-24T20:26:03.990Z,6.78
2022-08-24T20:28:40.525Z,5.80
2022-08-24T20:31:10.637Z,6.10
2022-08-24T20:33:39.128Z,7.22
2022-08-24T20:36:08.310Z,6.57
2022-08-24T20:38:37.581Z,7.28
2022-08-24T20:41:06.069Z,6.45
2022-08-24T20:43:34.354Z,7.00
2022-08-24T20:46:02.794Z,6.90
2022-08-24T20:48:35.995Z,5.45
2022-08-24T20:51:05.726Z,5.85
2022-08-24T20:53:33.923Z,6.05
2022-08-24T20:56:10.217Z,5.57
2022-08-24T20:58:39.584Z,6.55
2022-08-24T21:01:08.354Z,4.65
2022-08-24T21:03:36.822Z,5.97
2022-08-24T21:06:05.891Z,7.65
2022-08-24T21:08:34.121Z,6.35
2022-08-24T21:11:03.843Z,6.85
2022-08-24T21:13:32.126Z,6.18
2022-08-24T21:16:00.871Z,7.85
2022-08-24T21:18:29.278Z,8.25
2022-08-24T21:21:03.701Z,7.10
2022-08-24T21:23:33.232Z,8.30
2022-08-24T21:26:04.425Z,8.00
2022-08-24T21:28:33.374Z,8.88
2022-08-24T21:31:05.285Z,9.35
2022-08-24T21:33:51.340Z,8.77
2022-08-24T21:36:20.543Z,8.02
2022-08-24T21:38:48.489Z,7.13
2022-08-24T21:41:17.916Z,9.02
2022-08-24T21:43:46.043Z,9.50
2022-08-24T21:46:14.586Z,8.13
2022-08-24T21:48:42.845Z,7.88
2022-08-24T21:51:11.290Z,9.75
2022-08-24T21:53:39.541Z,7.18
2022-08-24T21:56:08.152Z,7.45
2022-08-24T21:58:37.662Z,9.57
2022-08-24T22:01:05.864Z,9.70
2022-08-24T22:03:39.793Z,10.73
2022-08-24T22:06:09.286Z,8.50
2022-08-24T22:08:38.919Z,9.63
2022-08-24T22:11:12.789Z,8.80
2022-08-24T22:13:47.186Z,9.25
2022-08-24T22:16:15.743Z,9.82
2022-08-24T22:18:44.116Z,8.38
2022-08-24T22:21:18.114Z,7.68
2022-08-24T22:23:48.104Z,8.18
2022-08-24T22:26:17.733Z,8.48
2022-08-24T22:28:48.987Z,8.60
2022-08-24T22:31:21.233Z,9.02
2022-08-24T22:33:51.661Z,9.07
2022-08-24T22:36:20.894Z,9.75
2022-08-24T22:38:50.903Z,9.75
2022-08-24T22:41:22.339Z,10.15
2022-08-24T22:44:11.987Z,9.98
2022-08-24T22:46:41.661Z,8.18
2022-08-24T22:49:11.966Z,10.05
2022-08-24T22:51:40.871Z,13.95
2022-08-24T22:54:13.190Z,10.93
2022-08-24T22:56:48.107Z,8.95
2022-08-24T22:59:23.550Z,9.05
2022-08-24T23:01:57.368Z,7.18
2022-08-24T23:04:32.251Z,8.70
2022-08-24T23:07:04.224Z,8.20
2022-08-24T23:09:36.633Z,7.43
2022-08-24T23:12:23.746Z,5.55
2022-08-24T23:14:55.000Z,6.30
2022-08-24T23:17:36.746Z,6.40
2022-08-24T23:20:09.289Z,6.00
2022-08-24T23:22:43.779Z,4.63
2022-08-24T23:25:15.013Z,7.47
2022-08-24T23:27:46.613Z,5.60
2022-08-24T23:30:22.730Z,5.70
2022-08-24T23:32:52.553Z,5.15
2022-08-24T23:35:21.082Z,4.28
2022-08-24T23:37:49.514Z,5.35
2022-08-24T23:40:20.765Z,4.22
2022-08-24T23:42:50.965Z,4.47
2022-08-24T23:45:28.273Z,4.15
2022-08-24T23:48:00.342Z,4.40
2022-08-24T23:50:33.216Z,4.40
2022-08-24T23:53:04.017Z,5.07
2022-08-24T23:55:33.814Z,4.65
2022-08-24T23:58:04.677Z,4.03
